Glen Lyn, Virginia
Current Conditions -  °F | °C
As of 5:15 PM on Sunday 23 Nov 2014 (Local Time) from KPSK Reporting Station
Drizzle Drizzle  
Wind Chill: 47°   Ceiling: 400
Heat Index: 49°   Visibility: 3mi
Dew Point: 49°   Wind: 5mph
Humidity: 100%   Direction: 80°E
Pressure: 29.94"   Gusts: NA
Location:  37.37°N, 80.86°W
Report Text: KPSK 232215Z AUTO 08004KT 3SM -DZ BKN004 OVC013 10/10 A2994 RMK AO2 T00950095
Loading
Personal Weather Stations






























Interactive Weather Map New forecast layout! Learn more

10-Day Weather Forecast

Advertisements
Track Severe Weather on mobile